Time;durP1;ratioP1;P1;durP2;ratioP2;P2;SDS_P1;SDS_P2;PMS_P1;PMS_P2;Temp;Humidity;BMP_temperature;BMP_pressure;BME280_temperature;BME280_humidity;BME280_pressure;Samples;Min_cycle;Max_cycle;Signal;HPM_P1;HPM_P2
2021/12/01 00:02:09;;;;;;;0.50;0.50;;;;;;;16.20;54.08;100153.69;5042454;28;20096;-56
2021/12/01 00:04:34;;;;;;;0.98;0.60;;;;;;;16.18;55.12;100139.53;5043377;28;20052;-56
2021/12/01 00:07:00;;;;;;;1.85;0.80;;;;;;;16.16;55.60;100147.81;5044990;28;20021;-56
2021/12/01 00:09:25;;;;;;;0.75;0.65;;;;;;;16.13;55.28;100139.25;5044396;28;20033;-56
2021/12/01 00:11:50;;;;;;;0.98;0.45;;;;;;;16.15;53.96;100139.91;5042417;28;20053;-56
2021/12/01 00:14:16;;;;;;;1.13;0.63;;;;;;;16.13;54.52;100128.44;5043391;28;20152;-56
2021/12/01 00:16:41;;;;;;;1.65;0.63;;;;;;;16.12;54.83;100110.53;5044240;28;20021;-56
2021/12/01 00:19:06;;;;;;;0.55;0.55;;;;;;;16.13;55.73;100104.13;5042348;28;20030;-57
2021/12/01 00:21:32;;;;;;;0.47;0.47;;;;;;;16.12;54.18;100097.03;5050510;28;20037;-56
2021/12/01 00:23:57;;;;;;;0.50;0.50;;;;;;;16.13;54.15;100096.03;5053629;28;20374;-56
2021/12/01 00:26:22;;;;;;;0.50;0.50;;;;;;;16.15;55.50;100085.84;5053272;28;20024;-56
2021/12/01 00:28:48;;;;;;;1.63;0.40;;;;;;;16.16;54.50;100066.75;5053553;28;20409;-56
2021/12/01 00:31:13;;;;;;;0.95;0.50;;;;;;;16.12;54.77;100054.66;5051885;28;20049;-57
2021/12/01 00:33:40;;;;;;;1.75;0.40;;;;;;;16.14;55.12;100057.16;5053741;28;20405;-56
2021/12/01 00:36:08;;;;;;;5.47;0.52;;;;;;;16.14;54.26;100051.75;5053120;28;20117;-56
2021/12/01 01:05:34;;;;;;;0.50;0.50;;;;;;;15.97;54.65;100004.31;5053287;28;20040;-56
2021/12/01 01:08:00;;;;;;;4.28;0.63;;;;;;;15.98;54.83;99987.91;5052788;28;20033;-57
2021/12/01 01:18:42;;;;;;;0.70;0.57;;;;;;;16.01;54.05;99981.31;5055881;28;20082;-56
2021/12/01 01:21:07;;;;;;;0.70;0.70;;;;;;;15.97;54.96;99964.63;5055333;28;20538;-56
2021/12/01 01:23:34;;;;;;;0.68;0.55;;;;;;;16.01;54.94;99965.09;5055587;28;20021;-56
2021/12/01 01:26:00;;;;;;;1.27;1.20;;;;;;;16.03;55.23;99960.34;5055502;28;20104;-56
2021/12/01 01:28:26;;;;;;;0.55;0.52;;;;;;;16.00;55.21;99937.25;5055593;28;20706;-56
2021/12/01 01:30:52;;;;;;;0.95;0.90;;;;;;;16.04;54.80;99943.97;5056754;28;20017;-56
2021/12/01 01:33:18;;;;;;;1.27;1.08;;;;;;;16.02;54.76;99937.91;5056659;28;20474;-56
2021/12/01 01:35:44;;;;;;;1.27;0.90;;;;;;;16.03;55.25;99930.63;5056836;28;20455;-56
2021/12/01 01:38:09;;;;;;;0.85;0.70;;;;;;;16.00;54.16;99918.31;5055108;28;20029;-56
2021/12/01 01:40:37;;;;;;;0.52;0.52;;;;;;;16.01;53.72;99921.88;5056563;28;20043;-56
2021/12/01 01:43:03;;;;;;;1.17;1.02;;;;;;;16.01;55.13;99921.88;5056888;28;20439;-56
2021/12/01 01:45:28;;;;;;;2.67;1.02;;;;;;;15.98;53.70;99896.06;5056337;28;20053;-56
2021/12/01 01:48:04;;;;;;;1.02;0.75;;;;;;;15.98;54.11;99889.81;5056322;28;20021;-56
2021/12/01 01:50:38;;;;;;;1.55;1.10;;;;;;;15.97;54.28;99898.97;5056200;28;20017;-56
2021/12/01 01:53:06;;;;;;;3.78;1.10;;;;;;;15.97;55.07;99893.56;5056152;28;20461;-56
2021/12/01 01:55:32;;;;;;;1.52;0.90;;;;;;;15.99;53.87;99897.75;5054954;28;20021;-56
2021/12/01 01:57:58;;;;;;;0.95;0.90;;;;;;;16.01;53.89;99886.75;5055336;28;20047;-56
2021/12/01 02:00:24;;;;;;;1.30;1.20;;;;;;;16.02;54.61;99886.59;5055073;28;20033;-56
2021/12/01 02:02:50;;;;;;;1.02;0.93;;;;;;;16.03;54.53;99876.59;5056192;28;20401;-56
2021/12/01 02:05:16;;;;;;;1.55;1.25;;;;;;;16.07;54.53;99877.91;5056284;28;20040;-56
2021/12/01 02:07:43;;;;;;;1.50;1.20;;;;;;;16.07;53.58;99877.91;5056031;28;20584;-56
2021/12/01 02:10:08;;;;;;;0.80;0.80;;;;;;;16.08;54.61;99874.19;5056206;28;20037;-56
2021/12/01 02:12:34;;;;;;;1.35;1.25;;;;;;;16.06;53.02;99860.00;5056433;28;20389;-56
2021/12/01 02:14:59;;;;;;;4.03;1.17;;;;;;;16.09;54.55;99859.63;5055809;28;20025;-56
2021/12/01 02:17:25;;;;;;;3.40;1.13;;;;;;;16.08;53.74;99855.28;5055813;28;20477;-56
2021/12/01 02:19:53;;;;;;;2.85;0.80;;;;;;;16.07;53.38;99856.28;5054632;28;20033;-56
2021/12/01 02:22:19;;;;;;;1.75;1.20;;;;;;;16.09;53.12;99849.69;5055739;28;20036;-56
2021/12/01 02:24:46;;;;;;;2.88;0.98;;;;;;;16.10;53.20;99839.72;5054510;28;20037;-56
2021/12/01 02:27:12;;;;;;;1.15;0.98;;;;;;;16.11;53.68;99830.56;5055365;28;20043;-56
2021/12/01 02:29:38;;;;;;;1.75;1.08;;;;;;;16.10;53.27;99839.72;5055415;28;20025;-56
2021/12/01 02:32:03;;;;;;;1.05;0.93;;;;;;;16.12;53.12;99827.69;5055704;28;20056;-56
2021/12/01 02:34:31;;;;;;;2.38;1.10;;;;;;;16.11;53.14;99819.75;5055958;28;20090;-56
2021/12/01 02:36:58;;;;;;;2.85;2.00;;;;;;;16.13;53.63;99817.72;5054396;28;20142;-56
2021/12/01 02:39:24;;;;;;;2.67;1.20;;;;;;;16.07;53.06;99803.09;5055581;28;20071;-56
2021/12/01 02:42:00;;;;;;;4.80;1.20;;;;;;;16.11;53.03;99803.53;5055594;28;20025;-56
2021/12/01 02:44:27;;;;;;;1.70;1.30;;;;;;;16.10;53.42;99804.59;5055389;28;20035;-56
2021/12/01 02:46:53;;;;;;;2.97;1.48;;;;;;;16.12;53.85;99799.81;5055075;28;20083;-56
2021/12/01 02:49:20;;;;;;;1.73;1.35;;;;;;;16.09;53.70;99781.28;5055159;28;20433;-56
2021/12/01 02:51:48;;;;;;;2.25;1.38;;;;;;;16.07;52.89;99777.94;5055413;28;20489;-56
2021/12/01 02:54:13;;;;;;;2.35;1.55;;;;;;;16.07;53.94;99775.25;5055580;28;20393;-56
2021/12/01 02:56:44;;;;;;;2.03;1.83;;;;;;;16.04;54.01;99775.63;5055334;28;20025;-56
2021/12/01 02:59:10;;;;;;;3.53;1.65;;;;;;;16.03;53.80;99768.53;5055291;28;20024;-56
2021/12/01 03:01:35;;;;;;;2.28;1.73;;;;;;;16.03;53.91;99774.78;5037070;28;20039;-56
2021/12/01 03:04:01;;;;;;;3.60;2.15;;;;;;;16.01;52.14;99776.00;5054923;28;20025;-56
2021/12/01 03:06:27;;;;;;;7.93;2.10;;;;;;;15.99;52.91;99761.84;5054866;28;20029;-56
2021/12/01 03:08:53;;;;;;;3.33;2.28;;;;;;;15.96;52.75;99762.25;5055049;28;20033;-56
2021/12/01 03:11:18;;;;;;;4.95;2.40;;;;;;;15.90;52.98;99739.53;5053446;28;20025;-56
2021/12/01 03:13:44;;;;;;;4.50;2.30;;;;;;;15.91;53.05;99743.06;5054830;28;20086;-56
2021/12/01 03:16:10;;;;;;;5.53;2.50;;;;;;;15.91;52.88;99734.97;5054989;28;20052;-56
2021/12/01 03:18:35;;;;;;;2.65;1.90;;;;;;;15.89;52.39;99734.28;5054790;28;20041;-56
2021/12/01 03:21:00;;;;;;;4.95;2.97;;;;;;;15.88;52.53;99732.66;5054871;28;20029;-56
2021/12/01 03:23:27;;;;;;;3.38;2.20;;;;;;;15.86;52.37;99737.38;5036632;28;20037;-56
2021/12/01 03:25:53;;;;;;;3.17;2.25;;;;;;;15.83;53.90;99740.47;5053458;28;20029;-56
2021/12/01 03:28:19;;;;;;;5.85;2.70;;;;;;;15.78;53.01;99715.88;5054633;28;20028;-56
2021/12/01 03:30:46;;;;;;;5.25;2.95;;;;;;;15.74;53.36;99710.06;5054219;28;20021;-56
2021/12/01 03:33:17;;;;;;;3.10;2.58;;;;;;;15.69;53.87;99713.31;5053229;28;20044;-56
2021/12/01 03:35:44;;;;;;;3.35;2.50;;;;;;;15.65;53.41;99703.94;5054811;28;20024;-56
2021/12/01 03:38:11;;;;;;;5.18;2.25;;;;;;;15.63;53.90;99707.84;5054427;28;20042;-56
2021/12/01 03:40:36;;;;;;;4.03;2.95;;;;;;;15.57;53.48;99689.69;5053925;28;20112;-56
2021/12/01 03:43:02;;;;;;;5.38;3.03;;;;;;;15.57;52.29;99690.53;5054229;28;20499;-56
2021/12/01 03:45:28;;;;;;;4.60;2.55;;;;;;;15.56;53.90;99680.75;5052852;28;20500;-56
2021/12/01 03:47:53;;;;;;;4.82;2.70;;;;;;;15.51;53.56;99661.59;5054061;28;20118;-56
2021/12/01 03:50:19;;;;;;;9.50;3.08;;;;;;;15.50;52.91;99662.63;5036230;28;20144;-56
2021/12/01 03:52:44;;;;;;;5.03;2.90;;;;;;;15.48;54.03;99661.13;5054146;28;20031;-56
2021/12/01 03:55:10;;;;;;;6.40;3.38;;;;;;;15.42;53.09;99649.19;5053021;28;20515;-56
2021/12/01 03:57:36;;;;;;;4.35;2.72;;;;;;;15.42;52.46;99654.59;5052876;28;20041;-56
2021/12/01 04:00:05;;;;;;;5.03;2.83;;;;;;;15.38;53.17;99633.59;5053824;28;20110;-56
2021/12/01 04:02:31;;;;;;;4.38;2.75;;;;;;;15.35;53.48;99634.81;5053671;28;20535;-56
2021/12/01 04:04:57;;;;;;;4.82;2.60;;;;;;;15.39;52.52;99627.16;5053851;28;20495;-56
2021/12/01 04:07:23;;;;;;;3.05;2.10;;;;;;;15.38;52.95;99626.31;5053832;28;20033;-56
2021/12/01 04:09:48;;;;;;;7.05;2.15;;;;;;;15.38;52.23;99612.00;5053629;28;20435;-56
2021/12/01 04:12:14;;;;;;;6.18;2.47;;;;;;;15.39;52.94;99598.31;5053504;28;20394;-56
2021/12/01 04:14:39;;;;;;;3.70;2.22;;;;;;;15.39;53.79;99592.91;5053740;28;20074;-56
2021/12/01 04:17:05;;;;;;;3.70;2.10;;;;;;;15.40;53.80;99585.66;5053627;28;20108;-56
2021/12/01 04:19:31;;;;;;;2.40;1.90;;;;;;;15.38;53.17;99569.63;5053323;28;20036;-56
2021/12/01 04:21:57;;;;;;;7.95;2.47;;;;;;;15.38;52.86;99579.63;5052484;28;20033;-56
2021/12/01 04:24:22;;;;;;;2.42;1.80;;;;;;;15.37;52.34;99573.38;5053843;28;20052;-59
2021/12/01 04:26:48;;;;;;;3.95;1.70;;;;;;;15.39;53.44;99576.72;5053223;28;20032;-56
2021/12/01 04:29:14;;;;;;;5.07;1.58;;;;;;;15.37;53.61;99573.38;5053194;28;20033;-56
2021/12/01 04:31:40;;;;;;;2.17;1.15;;;;;;;15.37;52.42;99559.88;5053306;28;20037;-56
2021/12/01 04:34:06;;;;;;;2.15;1.65;;;;;;;15.33;52.25;99528.91;5053675;28;20108;-56
2021/12/01 04:36:34;;;;;;;2.30;1.55;;;;;;;15.40;53.50;99532.53;5053354;28;20033;-56
2021/12/01 04:39:00;;;;;;;4.05;1.63;;;;;;;15.36;52.86;99522.28;5053525;28;20523;-56
2021/12/01 04:41:29;;;;;;;2.28;1.83;;;;;;;15.38;53.30;99521.06;5053160;28;20036;-56
2021/12/01 04:43:54;;;;;;;1.92;1.23;;;;;;;15.41;52.47;99515.28;5053219;28;20450;-56
2021/12/01 04:46:20;;;;;;;2.95;1.48;;;;;;;15.41;53.64;99515.28;5051956;28;20107;-56
2021/12/01 04:48:48;;;;;;;1.52;1.17;;;;;;;15.40;52.08;99505.53;5052975;28;20116;-56
2021/12/01 04:51:14;;;;;;;2.00;1.17;;;;;;;15.42;52.40;99495.38;5050826;28;20055;-56
2021/12/01 04:53:40;;;;;;;2.00;1.05;;;;;;;15.40;53.16;99475.84;5053113;28;20052;-56
2021/12/01 04:56:06;;;;;;;1.80;1.20;;;;;;;15.42;52.24;99481.06;5051839;28;20032;-56
2021/12/01 04:58:33;;;;;;;1.40;1.05;;;;;;;15.39;51.81;99463.38;5051670;28;20017;-56
2021/12/01 05:01:00;;;;;;;1.00;0.98;;;;;;;15.38;53.42;99458.19;5053212;28;20108;-56
2021/12/01 05:03:26;;;;;;;1.23;1.13;;;;;;;15.40;51.56;99440.78;5052924;28;20093;-56
2021/12/01 05:05:52;;;;;;;1.30;1.00;;;;;;;15.40;51.89;99431.84;5052986;28;20116;-56
2021/12/01 05:08:19;;;;;;;2.45;0.85;;;;;;;15.34;51.86;99441.56;5051676;28;20428;-56
2021/12/01 05:10:45;;;;;;;1.40;0.80;;;;;;;15.29;51.98;99433.22;5052622;28;20037;-56
2021/12/01 05:13:10;;;;;;;1.30;1.00;;;;;;;15.26;51.96;99413.88;5053210;28;20037;-55
2021/12/01 05:15:36;;;;;;;2.58;0.95;;;;;;;15.24;53.12;99416.78;5051713;28;20036;-56
2021/12/01 05:18:01;;;;;;;1.50;0.60;;;;;;;15.21;52.53;99406.38;5052976;28;20037;-56
2021/12/01 05:20:26;;;;;;;1.25;0.98;;;;;;;15.21;53.01;99411.75;5034767;28;20044;-56
2021/12/01 05:22:52;;;;;;;1.00;0.95;;;;;;;15.15;53.14;99401.75;5051631;28;20035;-56
2021/12/01 05:25:17;;;;;;;2.85;0.85;;;;;;;15.17;53.40;99399.69;5051578;28;20028;-56
2021/12/01 05:27:43;;;;;;;2.88;1.02;;;;;;;15.17;53.56;99383.50;5052810;28;20053;-56
2021/12/01 05:30:09;;;;;;;3.35;1.00;;;;;;;15.16;53.47;99387.22;5052772;28;20091;-55
2021/12/01 05:32:34;;;;;;;0.90;0.73;;;;;;;15.15;53.01;99375.59;5052296;28;20057;-56
2021/12/01 05:34:59;;;;;;;1.70;0.80;;;;;;;15.14;52.99;99378.47;5052353;28;20477;-56
2021/12/01 05:37:25;;;;;;;1.73;0.80;;;;;;;15.14;52.50;99362.31;5052331;28;20090;-56
2021/12/01 05:39:50;;;;;;;1.00;1.00;;;;;;;15.13;53.26;99352.56;5051342;28;20033;-56
2021/12/01 05:42:16;;;;;;;0.57;0.55;;;;;;;15.11;51.91;99354.59;5052358;28;20029;-55
2021/12/01 05:44:43;;;;;;;2.92;1.00;;;;;;;15.11;52.43;99343.81;5052338;28;20031;-56
2021/12/01 05:47:09;;;;;;;1.05;1.02;;;;;;;15.13;53.77;99344.47;5051297;28;20443;-56
2021/12/01 05:49:41;;;;;;;2.70;0.70;;;;;;;15.13;52.46;99333.69;5034601;28;20021;-56
2021/12/01 05:52:07;;;;;;;0.90;0.60;;;;;;;15.12;52.90;99315.81;5052422;28;20025;-56
2021/12/01 05:54:33;;;;;;;1.50;0.82;;;;;;;15.12;53.65;99322.06;5052581;28;20671;-56
2021/12/01 05:56:58;;;;;;;5.40;0.85;;;;;;;15.13;52.73;99317.50;5051241;28;20116;-56
2021/12/01 05:59:24;;;;;;;0.90;0.68;;;;;;;15.18;53.37;99304.25;5052415;28;20068;-56
2021/12/01 06:01:49;;;;;;;1.95;0.73;;;;;;;15.18;53.24;99301.56;5052581;28;20401;-55
2021/12/01 06:04:14;;;;;;;2.92;0.80;;;;;;;15.20;52.97;99304.03;5056009;28;20063;-56
2021/12/01 06:06:40;;;;;;;0.80;0.70;;;;;;;15.12;53.67;99299.63;5055997;28;20025;-56
2021/12/01 06:09:06;;;;;;;3.08;0.70;;;;;;;15.16;53.67;99295.50;5055886;28;20033;-56
2021/12/01 06:11:31;;;;;;;0.65;0.63;;;;;;;15.15;52.59;99294.69;5055833;28;20021;-56
2021/12/01 06:13:56;;;;;;;0.70;0.60;;;;;;;15.11;53.05;99281.78;5055670;28;20094;-57
2021/12/01 06:16:23;;;;;;;2.17;0.93;;;;;;;15.07;53.25;99285.91;5054540;28;20029;-57
2021/12/01 06:18:49;;;;;;;0.60;0.60;;;;;;;15.03;53.11;99279.22;5054558;28;20029;-57
2021/12/01 06:21:14;;;;;;;4.00;1.00;;;;;;;15.00;53.07;99290.41;5037549;28;20075;-56
2021/12/01 06:23:40;;;;;;;0.57;0.57;;;;;;;14.96;52.15;99284.56;5055311;28;20098;-57
2021/12/01 06:26:05;;;;;;;2.05;1.23;;;;;;;14.92;52.51;99275.22;5054914;28;20041;-57
2021/12/01 06:28:30;;;;;;;1.60;0.38;;;;;;;14.89;52.84;99275.59;5055467;28;20056;-57
2021/12/01 06:30:56;;;;;;;1.23;0.60;;;;;;;14.78;53.83;99253.72;5055523;28;20029;-57
2021/12/01 06:33:21;;;;;;;5.22;0.60;;;;;;;14.80;53.92;99260.56;5055717;28;20063;-56
2021/12/01 06:35:49;;;;;;;0.80;0.45;;;;;;;14.79;53.30;99260.78;5054165;28;20065;-56
2021/12/01 06:38:15;;;;;;;1.90;0.80;;;;;;;14.76;52.91;99256.63;5055193;28;20111;-57
2021/12/01 06:40:40;;;;;;;1.50;0.85;;;;;;;14.78;54.20;99259.09;5054993;28;20517;-57
2021/12/01 06:43:06;;;;;;;2.60;0.68;;;;;;;14.77;52.89;99258.28;5055394;28;20032;-57
2021/12/01 06:45:31;;;;;;;0.85;0.70;;;;;;;14.74;54.18;99237.09;5054377;28;20033;-57
2021/12/01 06:47:56;;;;;;;0.80;0.60;;;;;;;14.75;54.22;99232.53;5055164;28;20105;-57
2021/12/01 06:50:23;;;;;;;1.17;0.70;;;;;;;14.75;54.25;99227.16;5055035;28;20040;-57
2021/12/01 06:52:48;;;;;;;1.33;0.65;;;;;;;14.76;54.56;99229.66;5055331;28;20086;-57
2021/12/01 06:55:14;;;;;;;1.45;0.88;;;;;;;14.74;53.32;99214.72;5053940;28;20108;-57
2021/12/01 06:57:39;;;;;;;2.28;0.50;;;;;;;14.75;54.33;99219.91;5055002;28;20029;-57
2021/12/01 07:00:07;;;;;;;0.63;0.60;;;;;;;14.75;52.91;99210.97;5055220;28;20428;-57
2021/12/01 07:02:33;;;;;;;1.52;0.70;;;;;;;14.73;52.98;99204.97;5054400;28;20029;-57
2021/12/01 07:04:58;;;;;;;1.85;0.82;;;;;;;14.79;54.47;99217.66;5054496;28;20025;-57
2021/12/01 07:07:24;;;;;;;4.13;0.80;;;;;;;14.80;53.29;99192.34;5054602;28;20436;-57
2021/12/01 07:09:51;;;;;;;2.60;0.68;;;;;;;14.82;53.32;99190.31;5054637;28;20032;-57
2021/12/01 07:12:16;;;;;;;1.02;0.45;;;;;;;14.82;54.79;99201.09;5054778;28;20044;-57
2021/12/01 07:14:42;;;;;;;1.02;0.55;;;;;;;14.81;54.49;99177.84;5053452;28;20171;-57
2021/12/01 07:17:07;;;;;;;1.65;0.50;;;;;;;14.80;53.40;99190.50;5053242;28;20455;-57
2021/12/01 07:19:33;;;;;;;1.83;0.50;;;;;;;14.81;53.17;99191.34;5054464;28;20033;-56
2021/12/01 07:21:58;;;;;;;0.65;0.43;;;;;;;14.80;53.37;99184.25;5054695;28;20469;-57
2021/12/01 07:24:23;;;;;;;0.95;0.52;;;;;;;14.82;54.02;99184.91;5054629;28;20031;-58
2021/12/01 07:26:50;;;;;;;0.45;0.45;;;;;;;14.80;54.84;99181.56;5054136;28;20025;-58
2021/12/01 07:29:17;;;;;;;0.90;0.65;;;;;;;14.78;54.96;99184.47;5054242;28;20037;-58
2021/12/01 07:31:43;;;;;;;0.40;0.40;;;;;;;14.78;53.37;99172.84;5054150;28;20124;-58
2021/12/01 07:34:08;;;;;;;0.43;0.30;;;;;;;14.76;53.67;99174.91;5054013;28;20355;-58
2021/12/01 07:36:33;;;;;;;0.43;0.43;;;;;;;14.74;54.58;99171.59;5052687;28;20032;-57
2021/12/01 07:38:59;;;;;;;0.68;0.40;;;;;;;14.73;54.60;99180.69;5054204;28;20037;-57
2021/12/01 07:41:26;;;;;;;0.88;0.52;;;;;;;14.70;54.67;99154.13;5053903;28;20021;-57
2021/12/01 07:43:51;;;;;;;0.30;0.30;;;;;;;14.74;53.69;99166.22;5053992;28;20032;-57
2021/12/01 07:46:17;;;;;;;0.88;0.55;;;;;;;14.75;53.85;99170.56;5053861;28;20553;-57
2021/12/01 07:48:43;;;;;;;0.20;0.20;;;;;;;14.78;55.07;99151.28;5053897;28;20406;-57
2021/12/01 07:51:08;;;;;;;0.47;0.22;;;;;;;14.79;54.55;99151.09;5054063;28;20142;-57
2021/12/01 07:53:34;;;;;;;0.20;0.20;;;;;;;14.80;53.52;99141.13;5053880;28;20492;-57
2021/12/01 07:56:02;;;;;;;0.30;0.25;;;;;;;14.81;53.85;99142.81;5053792;28;20104;-57
2021/12/01 07:58:27;;;;;;;0.85;0.50;;;;;;;14.82;54.49;99131.00;5053872;28;20029;-57
2021/12/01 08:00:52;;;;;;;5.30;0.30;;;;;;;14.80;55.23;99120.41;5053442;28;20029;-58
2021/12/01 08:03:18;;;;;;;0.32;0.20;;;;;;;14.85;54.99;99127.91;5053399;28;20120;-57
2021/12/01 08:05:43;;;;;;;0.17;0.17;;;;;;;14.87;53.42;99124.00;5053340;28;20371;-57
2021/12/01 08:08:10;;;;;;;0.40;0.17;;;;;;;14.89;55.25;99121.09;5052172;28;20120;-57
2021/12/01 08:10:36;;;;;;;1.30;0.60;;;;;;;14.92;54.68;99124.22;5053151;28;20024;-57
2021/12/01 08:13:01;;;;;;;1.52;0.35;;;;;;;14.95;55.35;99121.13;5053190;28;20021;-57
2021/12/01 08:15:27;;;;;;;0.10;0.10;;;;;;;14.96;54.33;99100.41;5053226;28;20394;-57
2021/12/01 08:17:53;;;;;;;0.25;0.25;;;;;;;15.00;53.56;99110.56;5053429;28;20053;-57
2021/12/01 08:20:20;;;;;;;0.20;0.20;;;;;;;15.02;53.69;99121.16;5053105;28;20037;-57
2021/12/01 08:22:46;;;;;;;1.48;0.73;;;;;;;15.02;54.96;99113.91;5053124;28;20059;-58
2021/12/01 08:25:12;;;;;;;1.33;1.17;;;;;;;15.03;53.56;99103.94;5052928;28;20029;-58
2021/12/01 08:27:37;;;;;;;0.30;0.30;;;;;;;15.04;54.97;99102.94;5051615;28;20035;-59
2021/12/01 08:30:04;;;;;;;1.23;0.47;;;;;;;15.04;54.81;99109.16;5053134;28;20525;-59
2021/12/01 08:32:30;;;;;;;0.20;0.20;;;;;;;15.04;55.02;99109.16;5052749;28;20052;-60
2021/12/01 08:34:55;;;;;;;0.38;0.10;;;;;;;15.06;53.89;99095.47;5053073;28;20028;-59
2021/12/01 08:37:20;;;;;;;0.82;0.40;;;;;;;15.05;54.95;99093.78;5052962;28;20021;-59
2021/12/01 08:39:48;;;;;;;2.03;0.75;;;;;;;15.00;54.19;99098.94;5053114;28;20094;-59
2021/12/01 08:42:14;;;;;;;1.02;0.30;;;;;;;15.01;54.50;99097.94;5052814;28;20036;-58
2021/12/01 08:44:45;;;;;;;0.73;0.65;;;;;;;15.03;53.86;99085.06;5051456;28;20111;-58
2021/12/01 08:47:20;;;;;;;0.90;0.90;;;;;;;14.98;54.39;99076.75;5052972;28;20083;-58
2021/12/01 08:49:46;;;;;;;0.40;0.20;;;;;;;15.06;55.43;99106.25;5053100;28;20029;-58
2021/12/01 08:52:11;;;;;;;0.10;0.10;;;;;;;15.03;53.80;99093.16;5051625;28;20539;-59
2021/12/01 08:54:37;;;;;;;0.80;0.30;;;;;;;15.06;53.80;99088.22;5052773;28;20040;-59
2021/12/01 08:57:03;;;;;;;0.25;0.13;;;;;;;15.02;54.33;99102.28;5052904;28;20021;-59
2021/12/01 08:59:28;;;;;;;3.47;1.60;;;;;;;15.02;53.99;99099.56;5052890;28;20037;-58
2021/12/01 09:01:54;;;;;;;3.22;1.92;;;;;;;14.97;54.72;99097.50;5052760;28;20036;-58
2021/12/01 09:04:19;;;;;;;0.65;0.40;;;;;;;14.96;54.38;99101.22;5051448;28;20024;-59
2021/12/01 09:06:45;;;;;;;0.40;0.40;;;;;;;14.95;55.05;99077.16;5052565;28;20505;-59
2021/12/01 09:09:17;;;;;;;1.65;0.38;;;;;;;14.95;55.76;99077.16;5052728;28;20025;-58
2021/12/01 09:11:46;;;;;;;0.10;0.10;;;;;;;14.92;54.98;99083.78;5053045;28;20013;-58
2021/12/01 09:14:12;;;;;;;0.17;0.17;;;;;;;14.86;54.88;99081.03;5052674;28;20036;-58
2021/12/01 09:16:38;;;;;;;0.20;0.20;;;;;;;14.91;54.55;99073.19;5052515;28;20033;-57
2021/12/01 09:19:03;;;;;;;0.20;0.15;;;;;;;14.91;54.12;99070.47;5052527;28;20024;-57
2021/12/01 09:21:28;;;;;;;2.28;0.20;;;;;;;14.94;54.43;99064.69;5052542;28;20108;-57
2021/12/01 09:23:54;;;;;;;0.38;0.20;;;;;;;14.96;55.41;99089.63;5052383;28;20442;-58
2021/12/01 09:26:19;;;;;;;0.13;0.10;;;;;;;15.00;55.85;99082.78;5052601;28;20036;-57
2021/12/01 09:28:45;;;;;;;1.45;0.17;;;;;;;15.00;55.13;99082.78;5052552;28;20029;-57
2021/12/01 09:31:10;;;;;;;0.20;0.20;;;;;;;15.00;54.72;99075.53;5052215;28;20041;-57
2021/12/01 09:33:36;;;;;;;3.05;0.20;;;;;;;15.03;54.78;99068.91;5051700;28;20124;-57
2021/12/01 09:36:02;;;;;;;0.10;0.10;;;;;;;15.05;54.38;99077.59;5052568;28;20039;-57
2021/12/01 09:38:28;;;;;;;0.20;0.20;;;;;;;15.07;56.08;99070.16;5053973;28;20027;-57
2021/12/01 09:40:55;;;;;;;0.10;0.10;;;;;;;15.08;54.74;99061.03;5056354;28;20029;-57
2021/12/01 09:43:27;;;;;;;0.57;0.20;;;;;;;15.09;55.14;99068.94;5055201;28;20035;-58
2021/12/01 09:45:54;;;;;;;0.77;0.30;;;;;;;15.11;54.30;99057.94;5056530;28;20029;-57
2021/12/01 09:48:20;;;;;;;0.30;0.20;;;;;;;15.14;54.32;99061.06;5056585;28;20603;-57
2021/12/01 09:50:46;;;;;;;0.20;0.20;;;;;;;15.22;55.68;99067.28;5056535;28;20028;-57
2021/12/01 09:53:12;;;;;;;1.05;0.30;;;;;;;15.23;54.93;99048.22;5054999;28;20043;-56
2021/12/01 09:55:40;;;;;;;0.50;0.50;;;;;;;15.24;54.75;99049.06;5056274;28;20397;-57
2021/12/01 09:58:11;;;;;;;0.52;0.50;;;;;;;15.26;54.61;99053.22;5055986;28;20074;-57
2021/12/01 10:00:39;;;;;;;0.30;0.30;;;;;;;15.26;54.94;99041.59;5055973;28;20067;-56
2021/12/01 10:03:05;;;;;;;1.35;0.32;;;;;;;15.27;56.05;99027.88;5055903;28;20024;-57
2021/12/01 10:06:02;;;;;;;0.35;0.35;;;;;;;15.29;56.08;99047.44;5055788;28;20029;-57
2021/12/01 10:08:30;;;;;;;0.43;0.30;;;;;;;15.32;55.40;99041.63;5056022;28;20442;-56
2021/12/01 10:10:56;;;;;;;0.10;0.10;;;;;;;15.37;55.88;99041.84;5055761;28;20019;-57
2021/12/01 10:13:24;;;;;;;0.28;0.20;;;;;;;15.41;54.61;99021.50;5054547;28;20021;-56
2021/12/01 10:15:52;;;;;;;0.10;0.10;;;;;;;15.43;55.56;99027.53;5055762;28;20048;-56
2021/12/01 10:18:18;;;;;;;0.20;0.20;;;;;;;15.45;54.79;99020.06;5054617;28;20422;-56
2021/12/01 10:20:43;;;;;;;0.57;0.20;;;;;;;15.46;55.54;99032.56;5055451;28;20035;-57
2021/12/01 10:23:11;;;;;;;2.50;0.20;;;;;;;15.47;55.85;99027.97;5054321;28;20041;-57
2021/12/01 10:25:36;;;;;;;0.20;0.10;;;;;;;15.48;54.80;99016.16;5055493;28;20029;-56
2021/12/01 10:28:02;;;;;;;0.63;0.03;;;;;;;15.52;55.03;99026.31;5054162;28;20044;-57
2021/12/01 10:30:44;;;;;;;2.95;0.15;;;;;;;15.57;54.70;99012.22;5054115;28;20040;-57
2021/12/01 10:33:15;;;;;;;0.13;0.10;;;;;;;15.64;56.05;99008.50;5055238;28;20563;-57
2021/12/01 10:35:41;;;;;;;0.30;0.30;;;;;;;15.68;54.50;99009.75;5055399;28;20061;-57
2021/12/01 10:38:08;;;;;;;0.40;0.40;;;;;;;15.74;54.94;99000.81;5054025;28;20060;-57
2021/12/01 10:40:35;;;;;;;1.13;0.10;;;;;;;15.79;55.91;98993.97;5054117;28;20436;-56
2021/12/01 10:43:09;;;;;;;1.90;0.30;;;;;;;15.81;55.81;98972.97;5055160;28;20021;-56
2021/12/01 10:45:40;;;;;;;0.88;0.45;;;;;;;15.82;56.01;98971.97;5054948;28;20036;-57
2021/12/01 10:48:09;;;;;;;0.28;0.25;;;;;;;15.83;55.78;98976.31;5055172;28;20040;-57
2021/12/01 10:50:37;;;;;;;0.60;0.47;;;;;;;15.84;55.03;98973.41;5055091;28;20029;-57
2021/12/01 10:53:07;;;;;;;0.10;0.10;;;;;;;15.83;55.46;98984.44;5053772;28;20103;-56
2021/12/01 10:55:33;;;;;;;0.57;0.40;;;;;;;15.80;54.50;98985.66;5054778;28;20033;-62
2021/12/01 10:58:03;;;;;;;69.95;27.15;;;;;;;15.79;55.81;98983.16;5037096;28;20099;-59
2021/12/01 11:00:31;;;;;;;3.97;2.92;;;;;;;15.83;56.03;98989.81;5054479;28;20021;-59
2021/12/01 11:03:12;;;;;;;5.70;2.67;;;;;;;15.84;55.21;98980.66;5054720;28;20485;-58
2021/12/01 11:05:41;;;;;;;6.55;3.15;;;;;;;15.89;55.63;98988.97;5054630;28;20025;-57
2021/12/01 11:08:29;;;;;;;1.42;0.82;;;;;;;15.97;54.40;98980.69;5054774;28;20037;-57
2021/12/01 11:11:04;;;;;;;1.15;0.90;;;;;;;16.08;54.72;98988.16;5054713;28;20020;-57
2021/12/01 11:13:30;;;;;;;1.33;0.65;;;;;;;16.17;55.00;98981.47;5054705;28;20130;-57
2021/12/01 11:15:59;;;;;;;0.88;0.60;;;;;;;16.26;55.79;98989.16;5054451;28;20505;-57
2021/12/01 11:18:27;;;;;;;1.20;0.63;;;;;;;16.25;54.77;98994.75;5054722;28;20104;-57
2021/12/01 11:20:54;;;;;;;3.80;1.02;;;;;;;16.21;54.97;98988.13;5054485;28;20028;-57
2021/12/01 11:23:30;;;;;;;2.72;0.73;;;;;;;16.26;55.28;98996.41;5054345;28;20025;-57
2021/12/01 11:26:05;;;;;;;1.45;0.93;;;;;;;16.26;55.67;98985.63;5054392;28;20025;-57
2021/12/01 11:28:33;;;;;;;1.67;0.75;;;;;;;16.27;54.62;98981.88;5054649;28;20025;-56
2021/12/01 11:31:01;;;;;;;1.60;0.70;;;;;;;16.25;54.93;98997.44;5054121;28;20021;-57
2021/12/01 11:33:28;;;;;;;1.85;0.90;;;;;;;16.23;53.98;98994.13;5054018;28;20047;-57
2021/12/01 11:35:56;;;;;;;4.28;0.82;;;;;;;16.28;55.21;99002.44;5054483;28;20044;-57
2021/12/01 11:38:22;;;;;;;3.65;0.70;;;;;;;16.26;54.37;99001.81;5054135;28;20486;-57
2021/12/01 11:40:49;;;;;;;0.77;0.32;;;;;;;16.23;53.59;98999.53;5036432;28;20029;-57
2021/12/01 11:43:17;;;;;;;2.80;0.55;;;;;;;16.21;54.02;99004.34;5054355;28;20020;-57
2021/12/01 11:45:43;;;;;;;3.10;1.15;;;;;;;16.20;53.96;99017.00;5054547;28;20108;-57
2021/12/01 11:48:31;;;;;;;1.30;1.20;;;;;;;16.22;53.74;99014.91;5054158;28;20583;-57
2021/12/01 11:51:15;;;;;;;5.95;1.17;;;;;;;16.31;53.40;99020.94;5053722;28;20216;-57
2021/12/01 11:53:46;;;;;;;5.13;1.00;;;;;;;16.26;53.18;99012.63;5053805;28;20025;-57
2021/12/01 11:56:29;;;;;;;2.05;0.98;;;;;;;16.46;53.72;99026.13;5052653;28;20017;-57
2021/12/01 11:59:13;;;;;;;1.33;0.55;;;;;;;16.50;53.78;99011.94;5052704;28;20021;-57
2021/12/01 12:02:03;;;;;;;2.67;0.82;;;;;;;16.47;52.77;99025.88;5052210;28;20119;-57
2021/12/01 12:04:29;;;;;;;5.13;0.73;;;;;;;16.46;53.53;99024.25;5050516;28;20037;-57
2021/12/01 12:06:58;;;;;;;2.55;0.80;;;;;;;16.44;52.29;99029.03;5054045;28;20028;-57
2021/12/01 12:09:25;;;;;;;2.38;1.00;;;;;;;16.42;53.85;99039.22;5053802;28;20363;-57